Main page
METAR-TAF:

METAR-TAF

Airports :

Oban, Scotland

Oban Airport

latitude: 56-27-49N, longitude: 5-24-00W, elevation: 7 m

Current weather observation

The report was made 2 hours and 55 minutes ago, at 15:50 UTC
Wind 7 kt from the North/Northwest
Temperature 16°C
Humidity 48%
Pressure 1026 hPa
Visibility 10 km or more
no clouds below 1500 m and no cumulonimbus

METAR: EGEO 261550Z 33007KT CAVOK 16/05 Q1026

Time: 19:45 (18:45 UTC)

Forecast

The report was made 4 hours and 46 minutes ago, at 13:59 UTC
Forecast valid from 26 at 15 UTC to 26 at 17 UTC
Wind 5 kt from the East/Northeast
Visibility 10 km or more
no clouds below 1500 m and no cumulonimbus

TAF: EGEO 261359Z 2615/2617 07005KT CAVOK

Weather observations and forecasts of more than 4000 airports (METAR and TAF reports).

The available stations are represented by yellow and red dots on the map.

Hover mouse over dot to see the name of the station.

Then click to see weather observations and forecasts.

To change the map : click on the green buttons with a black cross to zoom in, on the green button with a dash to zoom out, or on the green arrows for adjacent maps.


METAR-TAF: